Time;durP1;ratioP1;P1;durP2;ratioP2;P2;SDS_P1;SDS_P2;PMS_P1;PMS_P2;Temp;Humidity;BMP_temperature;BMP_pressure;BME280_temperature;BME280_humidity;BME280_pressure;Samples;Min_cycle;Max_cycle;Signal;HPM_P1;HPM_P2
2023/07/31 00:00:11;;;;;;;6.00;1.80;;;17.10;99.90;;;;;;5097616;28;20402;-43
2023/07/31 00:02:36;;;;;;;3.97;1.60;;;17.10;99.90;;;;;;5097753;28;20395;-43
2023/07/31 00:05:02;;;;;;;3.88;1.58;;;17.10;99.90;;;;;;5097603;28;20047;-48
2023/07/31 00:07:28;;;;;;;4.28;1.70;;;17.10;99.90;;;;;;5097578;28;20483;-43
2023/07/31 00:09:54;;;;;;;4.32;1.52;;;17.10;99.90;;;;;;5097420;28;20040;-43
2023/07/31 00:12:20;;;;;;;3.25;1.58;;;17.00;99.90;;;;;;5097248;28;20411;-43
2023/07/31 00:14:46;;;;;;;4.05;1.25;;;17.10;99.90;;;;;;5097419;28;20501;-44
2023/07/31 00:17:11;;;;;;;3.35;1.30;;;17.00;99.90;;;;;;5097496;28;20040;-43
2023/07/31 00:19:37;;;;;;;3.13;1.40;;;17.00;99.90;;;;;;5097429;28;20044;-44
2023/07/31 00:22:03;;;;;;;3.03;1.38;;;17.00;99.90;;;;;;5097329;28;20040;-45
2023/07/31 00:24:29;;;;;;;3.65;1.67;;;17.10;99.90;;;;;;5096246;28;20048;-45
2023/07/31 00:26:54;;;;;;;3.55;1.30;;;17.00;99.90;;;;;;5096085;28;20040;-45
2023/07/31 00:29:20;;;;;;;2.85;1.35;;;17.10;99.90;;;;;;5096890;28;20482;-45
2023/07/31 00:31:46;;;;;;;3.63;1.30;;;17.00;99.90;;;;;;5097162;28;20048;-45
2023/07/31 00:34:11;;;;;;;4.10;1.45;;;17.00;99.90;;;;;;5096190;28;20091;-45
2023/07/31 00:36:37;;;;;;;3.75;1.40;;;17.00;99.90;;;;;;5096890;28;20051;-44
2023/07/31 00:39:04;;;;;;;2.30;1.05;;;16.90;99.90;;;;;;5097201;28;20126;-44
2023/07/31 00:41:30;;;;;;;3.35;1.55;;;16.90;99.90;;;;;;5096733;28;20530;-45
2023/07/31 00:43:55;;;;;;;2.63;1.02;;;16.90;99.90;;;;;;5096818;28;20094;-44
2023/07/31 00:46:21;;;;;;;2.80;1.10;;;16.80;99.90;;;;;;5096830;28;20536;-43
2023/07/31 00:48:47;;;;;;;2.83;1.00;;;16.80;99.90;;;;;;5097287;28;20083;-44
2023/07/31 00:51:13;;;;;;;4.13;1.10;;;16.80;99.90;;;;;;5096809;28;20044;-47
2023/07/31 00:53:40;;;;;;;2.10;0.90;;;16.80;99.90;;;;;;5096604;28;20119;-46
2023/07/31 00:56:06;;;;;;;2.55;1.33;;;16.80;99.90;;;;;;5096501;28;20059;-45
2023/07/31 00:58:31;;;;;;;2.45;1.00;;;16.70;99.90;;;;;;5096458;28;20490;-45
2023/07/31 01:00:57;;;;;;;2.58;0.80;;;16.70;99.90;;;;;;5096643;28;20051;-45
2023/07/31 01:03:23;;;;;;;2.15;0.75;;;16.70;99.90;;;;;;5095624;28;20044;-46
2023/07/31 01:05:58;;;;;;;2.75;0.70;;;16.70;99.90;;;;;;5096452;28;20044;-45
2023/07/31 01:08:37;;;;;;;2.53;0.80;;;16.70;99.90;;;;;;5096466;28;20044;-45
2023/07/31 01:11:21;;;;;;;2.83;1.10;;;16.70;99.90;;;;;;5096325;28;20044;-45
2023/07/31 01:13:47;;;;;;;2.83;1.00;;;16.70;99.90;;;;;;5096386;28;20052;-45
2023/07/31 01:16:13;;;;;;;2.95;1.00;;;16.60;99.90;;;;;;5096341;28;20555;-46
2023/07/31 01:18:38;;;;;;;1.98;0.82;;;16.60;99.90;;;;;;5096203;28;20048;-46
2023/07/31 01:21:34;;;;;;;1.48;0.70;;;16.60;99.90;;;;;;5094862;28;20044;-45
2023/07/31 01:24:30;;;;;;;2.10;1.13;;;16.60;99.90;;;;;;5096110;28;20087;-45
2023/07/31 01:27:16;;;;;;;1.83;0.70;;;16.60;99.90;;;;;;5095197;28;20479;-45
2023/07/31 01:30:10;;;;;;;2.60;0.80;;;16.50;99.90;;;;;;5095745;28;20032;-44
2023/07/31 01:32:40;;;;;;;2.20;0.70;;;16.50;99.90;;;;;;5095816;28;20059;-45
2023/07/31 01:35:06;;;;;;;2.28;0.85;;;16.50;99.90;;;;;;5096339;28;20040;-45
2023/07/31 01:37:32;;;;;;;;;;;16.50;99.90;;;;;;5129699;27;20052;-45
2023/07/31 01:39:57;;;;;;;2.33;0.80;;;16.50;99.90;;;;;;5095634;28;20282;-46
2023/07/31 01:42:23;;;;;;;1.30;0.50;;;16.50;99.90;;;;;;5095519;28;20151;-45
2023/07/31 01:44:49;;;;;;;1.85;0.60;;;16.50;99.90;;;;;;5095097;28;20067;-45
2023/07/31 01:47:14;;;;;;;1.65;0.60;;;16.50;99.90;;;;;;5095683;28;20131;-46
2023/07/31 01:49:40;;;;;;;2.90;0.93;;;16.50;99.90;;;;;;5094349;28;20483;-47
2023/07/31 01:52:06;;;;;;;1.85;0.75;;;16.50;99.90;;;;;;5095672;28;20075;-46
2023/07/31 01:54:33;;;;;;;1.33;0.65;;;16.50;99.90;;;;;;5095576;28;20048;-45
2023/07/31 01:56:59;;;;;;;1.42;0.60;;;16.50;99.90;;;;;;5094412;28;20058;-46
2023/07/31 01:59:24;;;;;;;2.17;1.00;;;16.50;99.90;;;;;;5095469;28;20119;-46
2023/07/31 02:01:50;;;;;;;2.10;1.00;;;16.50;99.90;;;;;;5095632;28;20539;-46
2023/07/31 02:04:16;;;;;;;2.33;0.73;;;16.50;99.90;;;;;;5095382;28;20040;-46
2023/07/31 02:06:41;;;;;;;1.65;0.80;;;16.50;99.90;;;;;;5095276;28;20131;-46
2023/07/31 02:09:07;;;;;;;2.97;0.70;;;16.50;99.90;;;;;;5095267;28;20387;-46
2023/07/31 02:11:33;;;;;;;2.05;0.80;;;16.40;99.90;;;;;;5095001;28;20089;-46
2023/07/31 02:13:58;;;;;;;1.50;0.70;;;16.40;99.90;;;;;;5095110;28;20081;-46
2023/07/31 02:16:24;;;;;;;1.38;0.70;;;16.40;99.90;;;;;;5095377;28;20051;-46
2023/07/31 02:18:49;;;;;;;1.48;0.73;;;16.50;99.90;;;;;;5094837;28;20122;-47
2023/07/31 02:21:15;;;;;;;1.83;0.60;;;16.50;99.90;;;;;;5095021;28;20051;-47
2023/07/31 02:23:41;;;;;;;1.90;0.82;;;16.50;99.90;;;;;;5095016;28;20044;-47
2023/07/31 02:26:06;;;;;;;1.88;0.85;;;16.40;99.90;;;;;;5093600;28;20044;-46
2023/07/31 02:28:32;;;;;;;2.17;0.70;;;16.50;99.90;;;;;;5094775;28;20036;-46
2023/07/31 02:30:58;;;;;;;2.10;0.60;;;16.50;99.90;;;;;;5094871;28;20297;-47
2023/07/31 02:33:23;;;;;;;2.05;0.75;;;16.40;99.90;;;;;;5094856;28;20050;-46
2023/07/31 02:35:49;;;;;;;1.52;0.65;;;16.40;99.90;;;;;;5093851;28;20479;-46
2023/07/31 02:38:15;;;;;;;0.80;0.40;;;16.40;99.90;;;;;;5094633;28;20043;-46
2023/07/31 02:40:41;;;;;;;2.00;0.50;;;16.40;99.90;;;;;;5094560;28;20079;-45
2023/07/31 02:43:07;;;;;;;2.13;0.75;;;16.40;99.90;;;;;;5094645;28;20086;-47
2023/07/31 02:45:33;;;;;;;1.33;0.45;;;16.50;99.90;;;;;;5094782;28;20092;-46
2023/07/31 02:47:58;;;;;;;0.85;0.50;;;16.40;99.90;;;;;;5076653;28;20079;-45
2023/07/31 02:50:24;;;;;;;1.70;0.50;;;16.40;99.90;;;;;;5094331;28;20044;-46
2023/07/31 02:52:50;;;;;;;0.98;0.30;;;16.50;99.90;;;;;;5093208;28;20048;-46
2023/07/31 02:55:15;;;;;;;0.80;0.40;;;16.40;99.90;;;;;;5094258;28;20480;-47
2023/07/31 02:57:41;;;;;;;0.90;0.50;;;16.40;99.90;;;;;;5093670;28;20047;-46
2023/07/31 03:00:07;;;;;;;1.13;0.50;;;16.40;99.90;;;;;;5093153;28;20044;-45
2023/07/31 03:02:33;;;;;;;2.80;0.60;;;16.40;99.90;;;;;;5094309;28;20101;-46
2023/07/31 03:04:59;;;;;;;1.52;0.50;;;16.50;99.90;;;;;;5094298;28;20123;-46
2023/07/31 03:07:25;;;;;;;1.00;0.60;;;16.40;99.90;;;;;;5094059;28;20499;-48
2023/07/31 03:09:50;;;;;;;1.38;0.47;;;16.50;99.90;;;;;;5093844;28;20514;-47
2023/07/31 03:12:16;;;;;;;3.10;0.60;;;16.50;99.90;;;;;;5093357;28;20036;-48
2023/07/31 03:14:42;;;;;;;1.20;0.60;;;16.40;99.90;;;;;;5094316;28;20113;-46
2023/07/31 03:17:07;;;;;;;1.45;0.60;;;16.40;99.90;;;;;;5092926;28;20410;-47
2023/07/31 03:19:33;;;;;;;1.88;0.47;;;16.40;99.90;;;;;;5092797;28;20085;-48
2023/07/31 03:21:59;;;;;;;1.40;0.50;;;16.40;99.90;;;;;;5093091;28;20048;-46
2023/07/31 03:24:26;;;;;;;1.13;0.68;;;16.40;99.90;;;;;;5092780;28;20043;-46
2023/07/31 03:26:51;;;;;;;;;;;16.40;99.90;;;;;;5094399;28;20043;-47
2023/07/31 03:29:17;;;;;;;1.20;0.50;;;16.40;99.90;;;;;;5093088;28;19920;-46
2023/07/31 03:31:43;;;;;;;1.52;0.50;;;16.40;99.90;;;;;;5092651;28;20087;-47
2023/07/31 03:34:08;;;;;;;1.70;0.47;;;16.40;99.90;;;;;;5093835;28;20044;-47
2023/07/31 03:36:34;;;;;;;0.45;0.30;;;16.40;99.90;;;;;;5093688;28;20278;-47
2023/07/31 03:38:59;;;;;;;1.67;0.63;;;16.40;99.90;;;;;;5093624;28;20058;-47
2023/07/31 03:41:25;;;;;;;1.00;0.40;;;16.40;99.90;;;;;;5093856;28;20419;-47
2023/07/31 03:43:57;;;;;;;0.80;0.40;;;16.40;99.90;;;;;;5093820;28;20043;-47
2023/07/31 03:46:24;;;;;;;1.55;0.40;;;16.40;99.90;;;;;;5093953;28;20048;-46
2023/07/31 03:48:50;;;;;;;0.80;0.40;;;16.40;99.90;;;;;;5093491;28;20482;-46
2023/07/31 03:51:17;;;;;;;0.88;0.40;;;16.40;99.90;;;;;;5093608;28;20048;-47
2023/07/31 03:53:43;;;;;;;1.55;0.40;;;16.40;99.90;;;;;;5093572;28;20418;-49
2023/07/31 03:56:09;;;;;;;1.00;0.30;;;16.40;99.90;;;;;;5094018;28;20051;-49
2023/07/31 03:58:36;;;;;;;1.00;0.40;;;16.40;99.90;;;;;;5093544;28;20542;-47
2023/07/31 04:01:02;;;;;;;1.33;0.30;;;16.30;99.90;;;;;;5093476;28;20109;-47
2023/07/31 04:03:28;;;;;;;0.82;0.40;;;16.40;99.90;;;;;;5092769;28;20048;-46
2023/07/31 04:05:58;;;;;;;0.63;0.30;;;16.40;99.90;;;;;;5092325;28;20399;-46
2023/07/31 04:08:23;;;;;;;1.15;0.30;;;16.30;99.90;;;;;;5093392;28;20040;-46
2023/07/31 04:10:49;;;;;;;0.35;0.20;;;16.40;99.90;;;;;;5093639;28;20151;-46
2023/07/31 04:13:15;;;;;;;0.80;0.38;;;16.30;99.90;;;;;;5093511;28;20060;-46
2023/07/31 04:15:41;;;;;;;1.02;0.57;;;16.30;99.90;;;;;;5093480;28;20055;-45
2023/07/31 04:18:06;;;;;;;2.08;0.50;;;16.40;99.90;;;;;;5093509;28;20044;-46
2023/07/31 04:20:32;;;;;;;2.20;0.50;;;16.40;99.90;;;;;;5093409;28;20040;-46
2023/07/31 04:22:58;;;;;;;0.90;0.28;;;16.40;99.90;;;;;;5093313;28;20044;-45
2023/07/31 04:25:24;;;;;;;0.70;0.30;;;16.40;99.90;;;;;;5092672;28;20040;-45
2023/07/31 04:27:49;;;;;;;1.88;0.50;;;16.40;99.90;;;;;;5093326;28;20089;-47
2023/07/31 04:30:15;;;;;;;0.80;0.40;;;16.40;99.90;;;;;;5093118;28;20072;-46
2023/07/31 04:32:41;;;;;;;1.48;0.40;;;16.30;99.90;;;;;;5092439;28;20145;-45
2023/07/31 04:35:07;;;;;;;1.25;0.40;;;16.30;99.90;;;;;;5075574;28;20098;-45
2023/07/31 04:37:32;;;;;;;0.95;0.40;;;16.40;99.90;;;;;;5093237;28;20043;-45
2023/07/31 04:39:58;;;;;;;1.90;0.40;;;16.40;99.90;;;;;;5092084;28;20059;-45
2023/07/31 04:42:24;;;;;;;1.10;0.40;;;16.40;99.90;;;;;;5096855;28;20051;-46
2023/07/31 04:44:49;;;;;;;0.75;0.20;;;16.30;99.90;;;;;;5097324;28;20051;-45
2023/07/31 04:47:15;;;;;;;1.80;0.57;;;16.30;99.90;;;;;;5096885;28;20043;-46
2023/07/31 04:49:41;;;;;;;0.97;0.40;;;16.30;99.90;;;;;;5096723;28;20539;-45
2023/07/31 04:52:06;;;;;;;1.33;0.30;;;16.40;99.90;;;;;;5096555;28;20657;-46
2023/07/31 04:54:32;;;;;;;0.88;0.40;;;16.40;99.90;;;;;;5096561;28;20048;-45
2023/07/31 04:56:58;;;;;;;0.40;0.30;;;16.40;99.90;;;;;;5096989;28;20052;-45
2023/07/31 04:59:23;;;;;;;0.40;0.20;;;16.40;99.90;;;;;;5096657;28;20047;-46
2023/07/31 05:01:49;;;;;;;0.55;0.28;;;16.40;99.90;;;;;;5096454;28;20101;-45
2023/07/31 05:04:15;;;;;;;0.55;0.20;;;16.40;99.90;;;;;;5096273;28;20059;-46
2023/07/31 05:06:41;;;;;;;1.05;0.35;;;16.40;99.90;;;;;;5096390;28;20079;-46
2023/07/31 05:09:09;;;;;;;1.40;0.40;;;16.40;99.90;;;;;;5096507;28;20091;-46
2023/07/31 05:11:34;;;;;;;0.85;0.32;;;16.40;99.90;;;;;;5096405;28;20040;-45
2023/07/31 05:14:00;;;;;;;1.05;0.20;;;16.40;99.90;;;;;;5096193;28;20056;-46
2023/07/31 05:16:26;;;;;;;0.75;0.25;;;16.40;99.90;;;;;;5095441;28;20552;-46
2023/07/31 05:18:51;;;;;;;0.70;0.40;;;16.40;99.90;;;;;;5096172;28;20406;-48
2023/07/31 05:21:17;;;;;;;0.63;0.20;;;16.40;99.90;;;;;;5096128;28;20044;-46
2023/07/31 05:23:43;;;;;;;0.90;0.40;;;16.40;99.90;;;;;;5094780;28;20081;-47
2023/07/31 05:26:11;;;;;;;1.05;0.45;;;16.40;99.90;;;;;;5096185;28;20047;-46
2023/07/31 05:28:37;;;;;;;0.43;0.20;;;16.40;99.90;;;;;;5096099;28;20062;-45
2023/07/31 05:31:04;;;;;;;0.40;0.17;;;16.40;99.90;;;;;;5095888;28;20048;-46
2023/07/31 05:33:30;;;;;;;;;;;16.40;99.90;;;;;;5096347;28;20040;-45
2023/07/31 05:35:56;;;;;;;0.80;0.25;;;16.40;99.90;;;;;;5094786;28;19923;-46
2023/07/31 05:38:23;;;;;;;0.80;0.20;;;16.40;99.90;;;;;;5095937;28;20131;-46
2023/07/31 05:40:49;;;;;;;0.20;0.10;;;16.40;99.90;;;;;;5095949;28;20434;-46
2023/07/31 05:43:14;;;;;;;1.08;0.20;;;16.40;99.90;;;;;;5095835;28;20113;-46
2023/07/31 05:45:42;;;;;;;0.52;0.20;;;16.40;99.90;;;;;;5095945;28;20051;-46
2023/07/31 05:48:07;;;;;;;0.88;0.28;;;16.40;99.90;;;;;;5095519;28;20057;-46
2023/07/31 05:50:33;;;;;;;0.63;0.30;;;16.40;99.90;;;;;;5095587;28;20051;-46
2023/07/31 05:52:59;;;;;;;1.13;0.22;;;16.50;99.90;;;;;;5094725;28;20051;-47
2023/07/31 05:55:28;;;;;;;0.38;0.22;;;16.50;99.90;;;;;;5077703;28;20040;-46
2023/07/31 05:57:54;;;;;;;0.57;0.20;;;16.40;99.90;;;;;;5095517;28;20044;-45
2023/07/31 06:00:20;;;;;;;1.15;0.20;;;16.40;99.90;;;;;;5095367;28;20398;-46
2023/07/31 06:02:47;;;;;;;0.98;0.30;;;16.40;99.90;;;;;;5095365;28;20048;-46
2023/07/31 06:05:13;;;;;;;1.27;0.10;;;16.40;99.90;;;;;;5094128;28;20164;-46
2023/07/31 06:07:38;;;;;;;0.55;0.20;;;16.40;99.90;;;;;;5095299;28;20151;-46
2023/07/31 06:10:05;;;;;;;0.20;0.10;;;16.40;99.90;;;;;;5095184;28;20036;-46
2023/07/31 06:12:34;;;;;;;0.52;0.20;;;16.40;99.90;;;;;;5095227;28;20497;-46
2023/07/31 06:15:00;;;;;;;0.52;0.13;;;16.50;99.90;;;;;;5094895;28;20071;-46
2023/07/31 06:17:27;;;;;;;0.93;0.30;;;16.40;99.90;;;;;;5095124;28;20483;-46
2023/07/31 06:19:52;;;;;;;0.75;0.30;;;16.50;99.90;;;;;;5094923;28;20395;-47
2023/07/31 06:22:18;;;;;;;1.25;0.30;;;16.50;99.90;;;;;;5094780;28;20136;-47
2023/07/31 06:24:44;;;;;;;1.02;0.30;;;16.50;99.90;;;;;;5095350;28;20087;-46
2023/07/31 06:27:11;;;;;;;0.98;0.30;;;16.50;99.90;;;;;;5094950;28;20093;-46
2023/07/31 06:29:36;;;;;;;0.88;0.30;;;16.50;99.90;;;;;;5094744;28;20102;-46
2023/07/31 06:32:03;;;;;;;0.60;0.20;;;16.60;99.90;;;;;;5094741;28;20483;-46
2023/07/31 06:34:28;;;;;;;1.38;0.38;;;16.60;99.90;;;;;;5094602;28;20054;-46
2023/07/31 06:36:58;;;;;;;0.80;0.30;;;16.50;99.90;;;;;;5094803;28;20399;-46
2023/07/31 06:39:24;;;;;;;1.80;0.40;;;16.60;99.90;;;;;;5093709;28;20101;-46
2023/07/31 06:41:50;;;;;;;1.63;0.60;;;16.60;99.90;;;;;;5094796;28;20052;-45
2023/07/31 06:44:16;;;;;;;3.78;0.77;;;16.60;99.90;;;;;;5094672;28;20083;-46
2023/07/31 06:46:42;;;;;;;2.72;0.70;;;16.70;99.90;;;;;;5094303;28;20094;-46
2023/07/31 06:49:08;;;;;;;2.72;0.90;;;16.70;99.90;;;;;;5093465;28;20093;-46
2023/07/31 06:51:35;;;;;;;3.67;0.82;;;16.70;99.90;;;;;;5094530;28;20047;-46
2023/07/31 06:54:01;;;;;;;5.07;1.20;;;16.70;99.90;;;;;;5094474;28;20429;-46
2023/07/31 06:56:27;;;;;;;5.43;1.27;;;16.70;99.90;;;;;;5093399;28;20043;-46
2023/07/31 06:58:53;;;;;;;6.22;1.60;;;16.70;99.90;;;;;;5094367;28;20082;-47
2023/07/31 07:01:18;;;;;;;6.63;1.35;;;16.80;99.90;;;;;;5093159;28;20075;-46
2023/07/31 07:03:44;;;;;;;9.05;1.80;;;16.80;99.90;;;;;;5093287;28;20044;-45
2023/07/31 07:06:10;;;;;;;6.22;2.13;;;16.80;99.90;;;;;;5094311;28;20052;-47
2023/07/31 07:08:36;;;;;;;7.97;2.15;;;16.80;99.90;;;;;;5093173;28;20055;-45
2023/07/31 07:11:01;;;;;;;8.15;1.92;;;16.90;99.90;;;;;;5094145;28;20047;-45
2023/07/31 07:13:27;;;;;;;5.13;2.03;;;16.90;99.90;;;;;;5094034;28;20099;-45
2023/07/31 07:15:53;;;;;;;9.32;1.58;;;17.00;99.90;;;;;;5094162;28;20048;-46
2023/07/31 07:18:19;;;;;;;5.88;2.25;;;17.00;99.90;;;;;;5094115;28;20040;-46
2023/07/31 07:20:52;;;;;;;8.35;1.77;;;17.10;99.90;;;;;;5094087;28;20048;-45
2023/07/31 07:23:18;;;;;;;8.35;2.28;;;17.10;99.90;;;;;;5094049;28;20051;-45
2023/07/31 07:25:45;;;;;;;;;;;17.10;99.90;;;;;;5094334;28;20185;-45
2023/07/31 07:28:10;;;;;;;4.30;1.53;;;17.10;99.90;;;;;;5092919;28;20014;-45
2023/07/31 07:30:36;;;;;;;8.63;1.65;;;17.20;99.90;;;;;;5093720;28;20527;-46
2023/07/31 07:33:02;;;;;;;5.78;1.40;;;17.20;99.90;;;;;;5094553;28;20044;-45
2023/07/31 07:35:28;;;;;;;6.78;1.80;;;17.20;99.90;;;;;;5093825;28;20494;-45
2023/07/31 07:37:54;;;;;;;6.90;1.80;;;17.20;99.90;;;;;;5094235;28;20051;-45
2023/07/31 07:40:20;;;;;;;8.88;1.42;;;17.20;99.90;;;;;;5093904;28;20055;-45
2023/07/31 07:42:46;;;;;;;6.35;1.67;;;17.20;99.90;;;;;;5093824;28;20509;-45
2023/07/31 07:45:12;;;;;;;6.55;1.63;;;17.20;99.90;;;;;;5093706;28;20051;-45
2023/07/31 07:47:40;;;;;;;5.65;1.88;;;17.20;99.90;;;;;;5093828;28;20452;-45
2023/07/31 07:50:07;;;;;;;5.65;1.80;;;17.20;99.90;;;;;;5092549;28;20048;-45
2023/07/31 07:52:32;;;;;;;;;;;17.20;99.90;;;;;;5094095;28;20040;-46
2023/07/31 07:54:58;;;;;;;6.13;2.10;;;17.20;99.90;;;;;;5093654;28;19920;-46
2023/07/31 07:57:24;;;;;;;6.50;1.98;;;17.20;99.90;;;;;;5093796;28;20055;-45
2023/07/31 07:59:49;;;;;;;4.65;1.80;;;17.20;99.90;;;;;;5093369;28;20121;-47
2023/07/31 08:02:15;;;;;;;7.68;2.25;;;17.20;99.90;;;;;;5093796;28;20048;-45
2023/07/31 08:04:40;;;;;;;4.95;1.70;;;17.20;99.90;;;;;;5092800;28;20535;-47
2023/07/31 08:07:06;;;;;;;3.53;1.20;;;17.20;99.90;;;;;;5093630;28;20076;-46
2023/07/31 08:09:32;;;;;;;2.08;0.68;;;17.20;99.90;;;;;;5093431;28;20044;-46
2023/07/31 08:12:01;;;;;;;1.38;0.60;;;17.20;99.90;;;;;;5093289;28;20086;-44
2023/07/31 08:14:27;;;;;;;1.10;0.38;;;17.20;99.90;;;;;;5092271;28;20388;-46
2023/07/31 08:16:53;;;;;;;1.48;0.40;;;17.10;99.90;;;;;;5095458;28;20113;-47
2023/07/31 08:19:19;;;;;;;1.02;0.40;;;17.10;99.90;;;;;;5097490;28;20088;-45
2023/07/31 08:21:44;;;;;;;1.88;0.45;;;17.10;99.90;;;;;;5097728;28;20055;-47
2023/07/31 08:24:10;;;;;;;1.25;0.32;;;17.20;99.90;;;;;;5097333;28;20077;-47
2023/07/31 08:26:36;;;;;;;0.95;0.40;;;17.20;99.90;;;;;;5097361;28;20048;-46
2023/07/31 08:29:02;;;;;;;1.30;0.40;;;17.30;99.90;;;;;;5097171;28;20471;-45
2023/07/31 08:31:29;;;;;;;2.25;0.30;;;17.30;99.90;;;;;;5097288;28;20449;-45
2023/07/31 08:33:55;;;;;;;1.38;0.50;;;17.30;99.90;;;;;;5097162;28;20406;-45
2023/07/31 08:36:21;;;;;;;1.40;0.40;;;17.30;99.90;;;;;;5097139;28;20044;-44
2023/07/31 08:38:47;;;;;;;1.85;0.40;;;17.40;99.90;;;;;;5096400;28;20050;-45
2023/07/31 08:41:17;;;;;;;1.95;0.50;;;17.40;99.90;;;;;;5096910;28;20135;-44
2023/07/31 08:43:47;;;;;;;0.82;0.38;;;17.40;99.90;;;;;;5096828;28;20101;-46
2023/07/31 08:46:14;;;;;;;0.75;0.25;;;17.50;99.90;;;;;;5096895;28;20044;-47
2023/07/31 08:48:45;;;;;;;1.48;0.50;;;17.50;99.90;;;;;;5095855;28;20047;-45
2023/07/31 08:51:11;;;;;;;1.17;0.43;;;17.50;99.90;;;;;;5097231;28;20056;-45
2023/07/31 08:53:37;;;;;;;0.93;0.38;;;17.60;99.90;;;;;;5096847;28;20044;-44
2023/07/31 08:56:03;;;;;;;1.23;0.50;;;17.70;99.90;;;;;;5096680;28;20051;-45
2023/07/31 08:58:32;;;;;;;0.98;0.32;;;17.70;99.90;;;;;;5096728;28;20056;-45
2023/07/31 09:01:00;;;;;;;0.85;0.30;;;17.70;99.90;;;;;;5096634;28;20051;-44
2023/07/31 09:03:26;;;;;;;1.02;0.30;;;17.70;99.90;;;;;;5096624;28;20056;-44
2023/07/31 09:05:53;;;;;;;0.80;0.20;;;17.70;99.90;;;;;;5096500;28;20050;-44
2023/07/31 09:08:21;;;;;;;1.00;0.30;;;17.70;99.90;;;;;;5095281;28;20044;-44
2023/07/31 09:10:47;;;;;;;2.58;0.30;;;17.70;99.90;;;;;;5095243;28;20044;-44
2023/07/31 09:13:14;;;;;;;0.60;0.32;;;17.60;99.90;;;;;;5096650;28;20048;-43
2023/07/31 09:15:42;;;;;;;0.55;0.30;;;17.60;99.90;;;;;;5096411;28;20062;-43
2023/07/31 09:18:10;;;;;;;2.05;0.30;;;17.60;99.90;;;;;;5096328;28;20395;-43
2023/07/31 09:20:37;;;;;;;1.05;0.20;;;17.60;99.90;;;;;;5096232;28;20101;-44
2023/07/31 09:23:11;;;;;;;0.40;0.20;;;17.70;99.90;;;;;;5096158;28;20087;-44
2023/07/31 09:25:38;;;;;;;1.08;0.60;;;17.70;99.90;;;;;;5094825;28;20044;-44
2023/07/31 09:28:09;;;;;;;1.65;0.40;;;17.70;99.90;;;;;;5077046;28;20406;-45
2023/07/31 09:30:49;;;;;;;0.70;0.30;;;17.70;99.90;;;;;;5096183;28;20048;-44
2023/07/31 09:33:15;;;;;;;0.50;0.20;;;17.80;99.90;;;;;;5095956;28;20060;-44
2023/07/31 09:35:41;;;;;;;0.40;0.20;;;17.80;99.90;;;;;;5094787;28;20131;-46
2023/07/31 09:38:10;;;;;;;0.30;0.20;;;17.80;99.90;;;;;;5095972;28;20044;-45
2023/07/31 09:40:37;;;;;;;0.63;0.30;;;17.80;99.90;;;;;;5095852;28;20051;-44
2023/07/31 09:43:12;;;;;;;0.93;0.10;;;17.80;99.90;;;;;;5094710;28;20052;-44
2023/07/31 09:45:40;;;;;;;0.50;0.10;;;17.80;99.90;;;;;;5095602;28;20044;-45
2023/07/31 09:48:10;;;;;;;0.35;0.20;;;17.80;99.90;;;;;;5095696;28;20044;-44
2023/07/31 09:50:41;;;;;;;0.90;0.25;;;17.80;99.90;;;;;;5094750;28;20048;-44
2023/07/31 09:53:08;;;;;;;0.32;0.13;;;17.80;99.90;;;;;;5095635;28;20058;-44
2023/07/31 09:55:35;;;;;;;0.40;0.17;;;17.90;99.90;;;;;;5095508;28;20048;-45
2023/07/31 09:58:05;;;;;;;0.15;0.10;;;18.00;99.90;;;;;;5095398;28;20055;-45
2023/07/31 10:00:32;;;;;;;1.55;0.32;;;18.00;99.90;;;;;;5095420;28;20391;-45
2023/07/31 10:02:58;;;;;;;;;;;18.00;99.90;;;;;;5095724;28;20487;-46
2023/07/31 10:05:31;;;;;;;0.17;0.10;;;18.00;99.90;;;;;;5095139;28;20359;-45
2023/07/31 10:07:57;;;;;;;0.50;0.10;;;18.00;99.90;;;;;;5095584;28;20334;-44
2023/07/31 10:10:24;;;;;;;0.60;0.10;;;18.00;99.90;;;;;;5095250;28;20483;-44
2023/07/31 10:12:52;;;;;;;0.50;0.13;;;18.00;99.90;;;;;;5095219;28;20136;-46
2023/07/31 10:15:19;;;;;;;0.20;0.00;;;18.00;99.90;;;;;;5095101;28;20495;-45
2023/07/31 10:17:47;;;;;;;0.82;0.10;;;18.00;99.90;;;;;;5095143;28;20396;-44
2023/07/31 10:20:16;;;;;;;0.17;0.10;;;18.10;99.90;;;;;;5095414;28;20391;-44
2023/07/31 10:22:42;;;;;;;0.40;0.10;;;18.10;99.90;;;;;;5094954;28;20091;-45
2023/07/31 10:25:09;;;;;;;0.20;0.20;;;18.10;99.90;;;;;;5095083;28;20114;-45
2023/07/31 10:27:39;;;;;;;0.10;0.00;;;18.10;99.90;;;;;;5094867;28;20044;-46
2023/07/31 10:30:07;;;;;;;0.43;0.10;;;18.10;99.90;;;;;;5094641;28;20611;-48
2023/07/31 10:32:34;;;;;;;1.27;0.20;;;18.20;99.90;;;;;;5094865;28;20044;-47
2023/07/31 10:35:03;;;;;;;0.10;0.10;;;18.10;99.90;;;;;;5093812;28;20491;-47
2023/07/31 10:37:35;;;;;;;0.85;0.00;;;18.20;99.90;;;;;;5094607;28;20487;-47
2023/07/31 10:40:04;;;;;;;0.28;0.00;;;18.10;99.90;;;;;;5093561;28;20560;-48
2023/07/31 10:42:35;;;;;;;0.10;0.00;;;18.10;99.90;;;;;;5094393;28;20052;-47
2023/07/31 10:45:09;;;;;;;7.78;0.40;;;18.20;99.90;;;;;;5095317;28;20070;-48
2023/07/31 10:47:45;;;;;;;0.73;0.17;;;18.10;99.90;;;;;;5095022;28;20043;-48
2023/07/31 10:50:23;;;;;;;1.48;0.20;;;18.10;99.90;;;;;;5094530;28;20044;-48
2023/07/31 10:52:57;;;;;;;0.20;0.10;;;18.10;99.90;;;;;;5093458;28;20051;-48
2023/07/31 10:55:27;;;;;;;0.30;0.10;;;18.10;99.90;;;;;;5094508;28;20551;-48
2023/07/31 10:57:54;;;;;;;0.25;0.10;;;18.10;99.90;;;;;;5094401;28;20071;-48
2023/07/31 11:00:29;;;;;;;0.25;0.10;;;18.10;99.90;;;;;;5094266;28;20044;-47
2023/07/31 11:03:04;;;;;;;0.32;0.13;;;18.10;99.90;;;;;;5094386;28;20043;-47
2023/07/31 11:05:53;;;;;;;0.70;0.20;;;18.20;99.90;;;;;;5094008;28;20095;-48
2023/07/31 11:08:24;;;;;;;0.65;0.25;;;18.30;99.90;;;;;;5094248;28;20051;-45
2023/07/31 11:11:11;;;;;;;1.05;0.30;;;18.40;99.90;;;;;;5094685;28;20383;-48
2023/07/31 11:13:49;;;;;;;;;;;18.50;99.90;;;;;;5093923;28;20138;-45
2023/07/31 11:16:15;;;;;;;;;;;18.50;99.90;;;;;;5095210;28;19920;-46
2023/07/31 11:18:43;;;;;;;0.75;0.47;;;18.60;99.90;;;;;;5093186;28;20444;-46
2023/07/31 11:21:13;;;;;;;0.75;0.55;;;18.70;99.90;;;;;;5093236;28;20505;-46
2023/07/31 11:23:39;;;;;;;0.52;0.20;;;18.70;99.90;;;;;;5094287;28;20446;-45
2023/07/31 11:26:06;;;;;;;0.55;0.20;;;18.70;99.90;;;;;;5093025;28;20052;-47
2023/07/31 11:28:33;;;;;;;0.70;0.20;;;18.70;99.90;;;;;;5093560;28;20177;-47
2023/07/31 11:30:59;;;;;;;0.90;0.10;;;18.70;99.90;;;;;;5093950;28;20059;-44
2023/07/31 11:33:25;;;;;;;0.68;0.20;;;18.70;99.90;;;;;;5093839;28;20044;-47
2023/07/31 11:35:51;;;;;;;2.95;0.40;;;18.70;99.90;;;;;;5093751;28;20051;-47
2023/07/31 11:38:29;;;;;;;0.52;0.22;;;18.70;99.90;;;;;;5093760;28;20044;-46
2023/07/31 11:40:57;;;;;;;0.40;0.20;;;18.70;99.90;;;;;;5093847;28;20065;-47
2023/07/31 11:43:23;;;;;;;0.50;0.30;;;18.70;99.90;;;;;;5093859;28;20055;-47
2023/07/31 11:45:51;;;;;;;0.95;0.20;;;18.60;99.90;;;;;;5093808;28;20051;-50
2023/07/31 11:48:24;;;;;;;0.93;0.30;;;18.60;99.90;;;;;;5094135;28;20048;-50
2023/07/31 11:50:52;;;;;;;0.95;0.20;;;18.60;99.90;;;;;;5094065;28;20058;-46
2023/07/31 11:53:40;;;;;;;0.98;0.40;;;18.60;99.90;;;;;;5096888;28;20131;-49
2023/07/31 11:56:07;;;;;;;0.63;0.30;;;18.60;99.90;;;;;;5097327;28;20062;-49
2023/07/31 11:58:34;;;;;;;1.10;0.30;;;18.60;99.90;;;;;;5098041;28;20040;-54
2023/07/31 12:01:01;;;;;;;1.27;0.30;;;18.60;99.90;;;;;;5097781;28;20082;-48
2023/07/31 12:03:27;;;;;;;0.70;0.30;;;18.60;99.90;;;;;;5097636;28;20044;-48
2023/07/31 12:05:53;;;;;;;1.40;0.30;;;18.60;99.90;;;;;;5097498;28;20173;-48
2023/07/31 12:08:20;;;;;;;;;;;18.60;99.90;;;;;;5097090;28;20040;-52
2023/07/31 12:10:47;;;;;;;0.95;0.40;;;18.60;99.90;;;;;;5097455;28;20363;-47
2023/07/31 12:13:24;;;;;;;0.35;0.20;;;18.60;99.90;;;;;;5097611;28;20048;-47
2023/07/31 12:15:59;;;;;;;0.50;0.20;;;18.70;99.90;;;;;;5097191;28;20098;-46
2023/07/31 12:18:26;;;;;;;0.55;0.30;;;18.70;99.90;;;;;;5097324;28;20076;-46
2023/07/31 12:20:59;;;;;;;0.57;0.40;;;18.80;99.90;;;;;;5097270;28;20040;-46
2023/07/31 12:23:30;;;;;;;0.75;0.45;;;18.90;99.90;;;;;;5097601;28;20090;-45
2023/07/31 12:26:12;;;;;;;1.90;0.60;;;19.00;99.90;;;;;;5097442;28;20044;-46
2023/07/31 12:28:47;;;;;;;1.60;0.52;;;19.00;99.90;;;;;;5097192;28;20062;-45
2023/07/31 12:31:21;;;;;;;1.25;0.55;;;19.00;99.90;;;;;;5096435;28;20071;-45
2023/07/31 12:33:49;;;;;;;0.90;0.35;;;18.90;99.90;;;;;;5097444;28;20040;-45
2023/07/31 12:36:23;;;;;;;0.55;0.30;;;18.90;99.90;;;;;;5097176;28;20052;-45
2023/07/31 12:38:50;;;;;;;1.05;0.40;;;18.80;99.90;;;;;;5096373;28;20052;-45
2023/07/31 12:41:17;;;;;;;1.95;0.60;;;18.80;99.90;;;;;;5097053;28;20044;-46
2023/07/31 12:43:43;;;;;;;;;;;18.80;99.90;;;;;;5096083;28;20100;-51
2023/07/31 12:46:10;;;;;;;1.20;0.50;;;18.80;99.90;;;;;;5096988;28;19924;-46
2023/07/31 12:48:36;;;;;;;;;;;18.90;99.90;;;;;;5097332;28;20039;-47
2023/07/31 12:51:02;;;;;;;1.80;0.68;;;18.90;99.90;;;;;;5096797;28;20040;-46